Time;durP1;ratioP1;P1;durP2;ratioP2;P2;SDS_P1;SDS_P2;PMS_P1;PMS_P2;Temp;Humidity;BMP_temperature;BMP_pressure;BME280_temperature;BME280_humidity;BME280_pressure;Samples;Min_cycle;Max_cycle;Signal;HPM_P1;HPM_P2
2021/09/03 00:00:27;;;;;;;8.98;4.15;;;;;;;18.39;45.39;100595.25;5008015;28;20025;-23
2021/09/03 00:02:53;;;;;;;7.15;3.83;;;;;;;18.61;45.29;100614.03;5007869;28;20040;-23
2021/09/03 00:05:19;;;;;;;6.05;3.90;;;;;;;18.52;45.35;100604.81;5007051;28;20029;-23
2021/09/03 00:07:46;;;;;;;5.97;3.80;;;;;;;18.84;45.43;100608.31;5008247;28;20032;-23
2021/09/03 00:10:12;;;;;;;6.95;3.65;;;;;;;19.09;45.21;100603.31;5007866;28;20038;-23
2021/09/03 00:12:38;;;;;;;8.07;3.60;;;;;;;19.08;45.45;100605.19;5007800;28;20038;-23
2021/09/03 00:15:07;;;;;;;8.25;4.00;;;;;;;18.98;45.23;100589.75;5008021;28;20120;-23
2021/09/03 00:17:33;;;;;;;8.07;3.80;;;;;;;18.97;45.28;100587.28;5007913;28;20033;-23
2021/09/03 00:19:58;;;;;;;8.02;3.85;;;;;;;19.38;44.82;100607.22;5006958;28;20040;-23
2021/09/03 00:22:24;;;;;;;7.07;3.63;;;;;;;19.46;44.62;100605.91;5007968;28;20037;-23
2021/09/03 00:24:49;;;;;;;8.55;4.05;;;;;;;19.54;45.43;100596.47;5007671;28;20787;-23
2021/09/03 00:27:15;;;;;;;7.47;4.10;;;;;;;19.38;44.94;100606.41;5007301;28;20104;-23
2021/09/03 00:29:40;;;;;;;7.43;3.63;;;;;;;19.74;44.71;100606.59;5007815;28;20032;-23
2021/09/03 00:32:06;;;;;;;6.68;3.58;;;;;;;19.39;45.33;100589.09;5007484;28;20034;-23
2021/09/03 00:34:31;;;;;;;6.85;4.35;;;;;;;19.30;45.35;100612.34;5007726;28;20030;-24
2021/09/03 00:36:57;;;;;;;8.70;4.45;;;;;;;19.64;44.66;100610.84;5006152;28;20038;-23
2021/09/03 00:39:22;;;;;;;5.93;3.70;;;;;;;20.01;43.24;100609.88;5007560;28;20030;-23
2021/09/03 00:41:48;;;;;;;7.55;3.88;;;;;;;20.16;43.88;100616.38;5007569;28;20445;-24
2021/09/03 00:44:13;;;;;;;8.32;3.90;;;;;;;20.12;43.78;100621.53;5007620;28;20105;-24
2021/09/03 00:46:39;;;;;;;6.90;3.90;;;;;;;20.27;43.59;100609.91;5006300;28;20030;-24
2021/09/03 00:49:04;;;;;;;7.25;4.60;;;;;;;20.36;44.24;100621.00;5007466;28;20030;-24
2021/09/03 00:51:30;;;;;;;6.22;3.70;;;;;;;20.48;43.97;100624.25;5006367;28;20707;-23
2021/09/03 00:53:55;;;;;;;8.07;3.80;;;;;;;20.18;44.22;100628.56;5006213;28;20092;-23
2021/09/03 00:56:21;;;;;;;9.02;3.95;;;;;;;20.13;44.64;100606.09;5006444;28;20421;-23
2021/09/03 00:58:47;;;;;;;8.77;4.00;;;;;;;20.01;44.55;100614.47;5007338;28;20837;-23
2021/09/03 01:01:12;;;;;;;8.85;4.60;;;;;;;20.02;44.88;100621.50;5007104;28;20030;-23
2021/09/03 01:03:38;;;;;;;6.18;3.70;;;;;;;20.21;44.81;100629.94;5007511;28;20038;-23
2021/09/03 01:06:05;;;;;;;9.90;4.05;;;;;;;20.14;44.57;100623.97;5005940;28;20076;-23
2021/09/03 01:08:31;;;;;;;6.75;3.53;;;;;;;20.06;44.82;100628.84;5007397;28;20037;-24
2021/09/03 01:10:57;;;;;;;6.97;3.70;;;;;;;19.70;45.46;100637.94;5007123;28;20049;-23
2021/09/03 01:13:22;;;;;;;6.43;4.00;;;;;;;19.82;45.75;100631.22;5009912;28;20033;-23
2021/09/03 01:15:47;;;;;;;6.35;3.42;;;;;;;19.88;45.21;100629.34;5011585;28;20041;-23
2021/09/03 01:18:13;;;;;;;7.22;4.00;;;;;;;19.43;46.57;100620.78;5011302;28;20036;-23
2021/09/03 01:20:38;;;;;;;6.60;3.92;;;;;;;19.36;46.34;100630.22;5011039;28;20029;-23
2021/09/03 01:23:04;;;;;;;7.30;4.10;;;;;;;18.99;47.76;100625.69;5010711;28;20398;-23
2021/09/03 01:25:29;;;;;;;6.60;4.10;;;;;;;19.13;47.41;100634.97;5009748;28;20068;-23
2021/09/03 01:27:55;;;;;;;8.95;4.20;;;;;;;18.92;47.81;100633.19;5011148;28;20124;-23
2021/09/03 01:30:20;;;;;;;7.03;4.20;;;;;;;18.93;47.83;100632.94;5010912;28;20030;-23
2021/09/03 01:32:47;;;;;;;9.55;4.13;;;;;;;18.95;48.23;100624.59;5009795;28;20457;-23
2021/09/03 01:35:13;;;;;;;9.10;4.07;;;;;;;19.09;47.66;100624.94;5011017;28;20022;-23
2021/09/03 01:37:38;;;;;;;9.18;4.40;;;;;;;18.93;48.12;100626.72;5011101;28;20036;-23
2021/09/03 01:40:04;;;;;;;10.23;4.50;;;;;;;19.09;47.85;100630.34;5010801;28;20421;-23
2021/09/03 01:42:30;;;;;;;6.05;4.03;;;;;;;19.09;48.05;100625.75;5010497;28;20444;-23
2021/09/03 01:44:55;;;;;;;9.43;4.15;;;;;;;19.04;47.92;100612.19;5010526;28;20033;-23
2021/09/03 01:47:21;;;;;;;9.32;4.55;;;;;;;19.11;48.10;100630.91;5010606;28;20038;-24
2021/09/03 01:49:46;;;;;;;8.13;4.07;;;;;;;19.17;47.88;100632.56;5010677;28;20037;-23
2021/09/03 01:52:12;;;;;;;6.68;4.28;;;;;;;18.81;49.07;100625.03;5010410;28;20037;-23
2021/09/03 01:54:37;;;;;;;7.88;4.70;;;;;;;18.68;49.02;100622.75;5010499;28;20112;-23
2021/09/03 01:57:03;;;;;;;7.88;4.28;;;;;;;18.81;49.42;100622.31;5010286;28;20037;-23
2021/09/03 01:59:28;;;;;;;9.27;4.30;;;;;;;18.91;48.99;100629.69;5010615;28;20504;-23
2021/09/03 02:01:54;;;;;;;6.53;4.28;;;;;;;18.69;49.54;100621.66;5010447;28;20041;-23
2021/09/03 02:04:19;;;;;;;6.88;4.53;;;;;;;18.73;49.46;100630.88;5010504;28;20490;-23
2021/09/03 02:06:45;;;;;;;8.23;4.30;;;;;;;18.89;49.04;100620.22;5010224;28;20034;-24
2021/09/03 02:09:10;;;;;;;7.97;4.85;;;;;;;18.74;49.60;100623.59;5010185;28;20026;-24
2021/09/03 02:11:36;;;;;;;6.60;4.18;;;;;;;18.37;49.85;100618.97;5010327;28;20036;-24
2021/09/03 02:14:01;;;;;;;8.05;4.65;;;;;;;18.17;50.73;100608.84;5008703;28;20504;-23
2021/09/03 02:16:27;;;;;;;8.88;4.20;;;;;;;18.94;49.42;100622.94;5009023;28;20026;-24
2021/09/03 02:18:52;;;;;;;13.13;5.28;;;;;;;18.87;48.71;100615.06;5009944;28;20084;-24
2021/09/03 02:21:18;;;;;;;8.23;4.82;;;;;;;18.61;49.20;100616.75;5010276;28;20041;-23
2021/09/03 02:23:43;;;;;;;10.10;4.72;;;;;;;18.59;49.85;100616.19;5009424;28;20383;-23
2021/09/03 02:26:09;;;;;;;9.55;4.88;;;;;;;18.44;49.42;100615.00;5009832;28;20091;-24
2021/09/03 02:28:34;;;;;;;10.23;5.15;;;;;;;18.42;49.97;100617.13;5009516;28;20498;-24
2021/09/03 02:31:00;;;;;;;10.43;4.80;;;;;;;17.97;51.33;100609.44;5008134;28;20029;-23
2021/09/03 02:33:25;;;;;;;12.48;4.65;;;;;;;18.19;50.85;100604.00;5009976;28;20529;-23
2021/09/03 02:35:51;;;;;;;9.05;4.90;;;;;;;18.23;50.29;100610.50;5009879;28;20099;-24
2021/09/03 02:38:16;;;;;;;9.95;4.55;;;;;;;18.05;50.28;100601.69;5008803;28;20030;-23
2021/09/03 02:40:42;;;;;;;9.07;4.28;;;;;;;18.18;50.56;100595.06;5010011;28;20038;-23
2021/09/03 02:43:08;;;;;;;9.57;4.03;;;;;;;18.24;49.04;100598.63;5009483;28;20034;-23
2021/09/03 02:45:33;;;;;;;6.82;3.80;;;;;;;18.29;49.61;100612.19;5008653;28;20034;-23
2021/09/03 02:48:01;;;;;;;8.00;4.32;;;;;;;18.13;49.33;100607.72;5009802;28;20030;-24
2021/09/03 02:50:26;;;;;;;7.50;4.50;;;;;;;18.11;49.80;100617.94;5009732;28;20091;-23
2021/09/03 02:52:52;;;;;;;8.50;4.50;;;;;;;18.01;49.31;100614.06;5009081;28;20026;-24
2021/09/03 02:55:18;;;;;;;14.75;4.50;;;;;;;18.11;50.79;100629.56;5009520;28;20494;-23
2021/09/03 02:57:43;;;;;;;16.38;4.63;;;;;;;18.30;50.08;100619.19;5009538;28;20124;-23
2021/09/03 03:00:09;;;;;;;10.02;4.68;;;;;;;18.28;50.24;100615.94;5009249;28;20049;-23
2021/09/03 03:02:35;;;;;;;8.77;4.40;;;;;;;18.63;49.39;100626.25;5009366;28;20032;-23
2021/09/03 03:05:00;;;;;;;9.73;4.43;;;;;;;18.51;49.39;100619.38;5008918;28;20489;-23
2021/09/03 03:07:26;;;;;;;8.35;4.70;;;;;;;18.28;50.17;100602.44;5009519;28;20172;-24
2021/09/03 03:09:51;;;;;;;8.65;4.40;;;;;;;18.06;50.40;100614.13;5009017;28;20513;-25
2021/09/03 03:12:20;;;;;;;8.90;4.25;;;;;;;18.27;49.17;100620.53;5009045;28;20088;-23
2021/09/03 03:14:45;;;;;;;;;;;;;;;17.86;50.28;100616.63;5009573;28;20045;-23
2021/09/03 03:17:10;;;;;;;8.77;4.38;;;;;;;17.71;51.37;100621.81;5008984;28;19913;-23
2021/09/03 03:19:36;;;;;;;13.02;5.05;;;;;;;17.62;50.84;100619.56;5008956;28;20037;-23
2021/09/03 03:22:01;;;;;;;13.13;5.10;;;;;;;17.70;50.59;100615.63;5008095;28;20029;-23
2021/09/03 03:24:27;;;;;;;7.95;4.32;;;;;;;17.30;51.54;100621.31;5009045;28;20041;-23
2021/09/03 03:26:52;;;;;;;12.40;4.72;;;;;;;17.15;52.39;100621.94;5008465;28;20041;-23
2021/09/03 03:29:18;;;;;;;8.35;4.40;;;;;;;17.27;51.82;100615.38;5008921;28;20433;-23
2021/09/03 03:31:43;;;;;;;11.98;5.30;;;;;;;17.25;52.00;100624.78;5007650;28;20763;-23
2021/09/03 03:34:10;;;;;;;12.40;4.40;;;;;;;17.22;51.99;100623.41;5008524;28;20087;-24
2021/09/03 03:36:35;;;;;;;16.10;5.18;;;;;;;17.11;53.08;100635.09;5007784;28;20557;-23
2021/09/03 03:39:01;;;;;;;26.92;5.65;;;;;;;17.52;51.29;100624.84;5008480;28;20041;-23
2021/09/03 03:41:26;;;;;;;13.20;4.70;;;;;;;17.92;50.63;100628.28;5006696;28;20101;-23
2021/09/03 03:43:52;;;;;;;8.38;4.97;;;;;;;18.12;50.52;100633.06;5006759;28;20044;-23
2021/09/03 03:46:17;;;;;;;16.45;5.20;;;;;;;17.94;51.31;100629.66;5008436;28;20037;-23
2021/09/03 03:48:43;;;;;;;12.60;5.18;;;;;;;17.91;51.66;100632.84;5008296;28;20634;-23
2021/09/03 03:51:09;;;;;;;9.43;4.72;;;;;;;17.52;52.81;100645.59;5008017;28;20092;-23
2021/09/03 03:53:34;;;;;;;7.07;4.40;;;;;;;16.74;55.54;100641.00;5008507;28;20041;-23
2021/09/03 03:56:00;;;;;;;9.90;4.63;;;;;;;16.13;57.55;100634.59;5008389;28;20034;-23
2021/09/03 03:58:25;;;;;;;8.25;4.57;;;;;;;15.95;58.39;100635.59;5008533;28;20049;-23
2021/09/03 04:00:50;;;;;;;29.90;6.50;;;;;;;16.20;57.50;100624.47;5008086;28;20038;-23
2021/09/03 04:03:16;;;;;;;12.23;5.47;;;;;;;16.50;56.13;100639.53;5008115;28;20053;-23
2021/09/03 04:05:42;;;;;;;28.77;6.80;;;;;;;16.61;56.21;100641.31;5008543;28;20037;-23
2021/09/03 04:08:07;;;;;;;12.32;4.85;;;;;;;16.33;57.44;100640.31;5008158;28;20034;-23
2021/09/03 04:10:33;;;;;;;9.65;5.38;;;;;;;16.19;57.55;100639.00;5007929;28;20026;-23
2021/09/03 04:12:58;;;;;;;11.23;4.60;;;;;;;16.10;58.60;100635.88;5007674;28;20113;-23
2021/09/03 04:15:24;;;;;;;12.90;5.95;;;;;;;16.61;55.84;100631.38;5007995;28;20045;-23
2021/09/03 04:17:49;;;;;;;13.70;5.53;;;;;;;16.70;55.82;100649.81;5007894;28;20049;-24
2021/09/03 04:20:15;;;;;;;49.40;29.45;;;;;;;16.85;55.46;100644.69;5008013;28;20030;-23
2021/09/03 04:22:40;;;;;;;13.70;5.63;;;;;;;17.17;54.59;100636.78;5008053;28;20482;-23
2021/09/03 04:25:06;;;;;;;12.90;5.60;;;;;;;16.73;56.29;100652.81;5007511;28;20137;-23
2021/09/03 04:27:32;;;;;;;12.88;5.90;;;;;;;17.08;55.11;100665.25;5007834;28;20045;-23
2021/09/03 04:29:57;;;;;;;9.02;5.90;;;;;;;16.85;55.12;100648.19;5007824;28;20114;-23
2021/09/03 04:32:23;;;;;;;10.98;5.57;;;;;;;17.20;54.13;100636.31;5007734;28;20037;-23
2021/09/03 04:34:48;;;;;;;10.77;5.55;;;;;;;17.13;54.40;100654.53;5007606;28;20834;-23
2021/09/03 04:37:13;;;;;;;13.50;5.57;;;;;;;16.39;57.54;100655.50;5007517;28;20030;-23
2021/09/03 04:39:39;;;;;;;11.23;5.90;;;;;;;16.13;58.11;100640.78;5007790;28;20033;-23
2021/09/03 04:42:05;;;;;;;15.70;6.00;;;;;;;16.18;57.99;100657.03;5007926;28;20068;-23
2021/09/03 04:44:30;;;;;;;10.50;5.50;;;;;;;16.59;56.96;100673.03;5007601;28;20466;-23
2021/09/03 04:46:56;;;;;;;14.30;5.53;;;;;;;16.53;57.96;100674.84;5006872;28;20042;-23
2021/09/03 04:49:21;;;;;;;11.98;6.13;;;;;;;16.41;58.12;100658.75;5007646;28;20030;-23
2021/09/03 04:51:47;;;;;;;11.43;6.85;;;;;;;16.47;57.72;100673.94;5007383;28;20027;-23
2021/09/03 04:54:12;;;;;;;11.52;6.18;;;;;;;16.84;56.55;100697.75;5007421;28;20030;-23
2021/09/03 04:56:38;;;;;;;10.00;5.85;;;;;;;16.94;57.29;100699.78;5008065;28;20045;-23
2021/09/03 04:59:05;;;;;;;23.58;9.48;;;;;;;17.03;56.75;100701.00;5007177;28;20461;-24
2021/09/03 05:01:30;;;;;;;33.58;12.30;;;;;;;17.74;54.83;100700.34;5007470;28;20037;-23
2021/09/03 05:03:56;;;;;;;18.65;8.43;;;;;;;17.58;54.99;100710.13;5007468;28;20021;-23
2021/09/03 05:06:21;;;;;;;12.45;6.40;;;;;;;17.55;54.35;100705.25;5007396;28;20464;-23
2021/09/03 05:08:47;;;;;;;8.07;5.00;;;;;;;17.58;53.58;100715.53;5007441;28;20033;-23
2021/09/03 05:11:12;;;;;;;12.07;6.03;;;;;;;18.31;52.32;100699.13;5007208;28;20423;-23
2021/09/03 05:13:38;;;;;;;10.38;6.07;;;;;;;18.43;52.37;100704.41;5007286;28;20490;-23
2021/09/03 05:16:03;;;;;;;7.95;5.10;;;;;;;18.29;52.35;100706.69;5007484;28;20041;-23
2021/09/03 05:18:29;;;;;;;9.43;5.65;;;;;;;18.36;52.00;100704.56;5007391;28;20141;-23
2021/09/03 05:20:54;;;;;;;12.20;6.82;;;;;;;18.22;52.97;100697.94;5007238;28;20041;-30
2021/09/03 05:23:20;;;;;;;15.88;7.35;;;;;;;18.55;52.28;100701.50;5007050;28;20478;-23
2021/09/03 05:25:45;;;;;;;12.85;6.10;;;;;;;19.22;50.06;100708.28;5006905;28;20073;-24
2021/09/03 05:28:11;;;;;;;14.18;6.55;;;;;;;19.66;48.64;100714.22;5007046;28;20049;-24
2021/09/03 05:30:37;;;;;;;12.82;5.65;;;;;;;19.55;48.54;100717.94;5006438;28;20036;-23
2021/09/03 05:33:02;;;;;;;11.73;4.57;;;;;;;19.46;47.66;100733.03;5006197;28;20033;-23
2021/09/03 05:35:28;;;;;;;11.05;4.53;;;;;;;19.57;47.55;100713.06;5007102;28;20033;-23
2021/09/03 05:37:54;;;;;;;7.68;4.65;;;;;;;20.03;46.26;100736.84;5007231;28;20057;-23
2021/09/03 05:40:19;;;;;;;7.28;4.07;;;;;;;20.02;44.32;100730.63;5006926;28;20022;-23
2021/09/03 05:42:45;;;;;;;7.13;4.47;;;;;;;19.55;46.15;100733.34;5007104;28;20041;-23
2021/09/03 05:45:11;;;;;;;10.80;4.35;;;;;;;19.92;44.74;100729.75;5007361;28;20073;-23
2021/09/03 05:47:41;;;;;;;7.15;4.35;;;;;;;20.29;43.77;100740.47;5007161;28;20145;-23
2021/09/03 05:50:07;;;;;;;11.48;5.40;;;;;;;20.67;43.38;100735.66;5006949;28;20030;-23
2021/09/03 05:52:33;;;;;;;9.73;5.18;;;;;;;20.59;42.12;100738.91;5006904;28;20129;-23
2021/09/03 05:54:58;;;;;;;11.52;5.40;;;;;;;20.51;42.73;100729.38;5007316;28;20042;-23
2021/09/03 05:57:24;;;;;;;9.05;5.10;;;;;;;20.87;41.94;100746.50;5007007;28;20827;-23
2021/09/03 05:59:49;;;;;;;9.48;4.68;;;;;;;20.51;43.48;100742.91;5008290;28;20026;-23
2021/09/03 06:02:15;;;;;;;7.80;4.25;;;;;;;20.90;41.37;100744.34;5010838;28;20088;-23
2021/09/03 06:04:40;;;;;;;8.85;4.32;;;;;;;21.03;40.49;100743.81;5010669;28;20038;-23
2021/09/03 06:07:06;;;;;;;9.15;4.43;;;;;;;21.01;41.93;100751.41;5010126;28;20129;-23
2021/09/03 06:09:31;;;;;;;7.32;4.43;;;;;;;20.85;42.41;100754.09;5010046;28;20497;-23
2021/09/03 06:11:57;;;;;;;9.05;4.47;;;;;;;20.59;42.18;100728.88;5010226;28;20466;-23
2021/09/03 06:14:23;;;;;;;8.95;4.60;;;;;;;20.42;42.48;100723.69;5010215;28;20030;-23
2021/09/03 06:16:49;;;;;;;9.52;4.10;;;;;;;20.69;42.66;100752.47;5009826;28;20046;-24
2021/09/03 06:19:14;;;;;;;8.45;3.97;;;;;;;20.70;42.19;100740.56;5010149;28;20033;-23
2021/09/03 06:21:40;;;;;;;10.05;4.18;;;;;;;20.29;44.46;100748.59;5010043;28;20048;-23
2021/09/03 06:24:27;;;;;;;11.65;3.65;;;;;;;19.98;45.61;100740.38;5008762;28;20490;-23
2021/09/03 06:26:51;;;;;;;7.05;3.83;;;;;;;20.05;45.59;100740.09;5009425;28;20037;-23
2021/09/03 06:29:37;;;;;;;7.40;3.80;;;;;;;19.94;45.57;100739.25;5010193;28;20057;-23
2021/09/03 06:32:02;;;;;;;7.85;3.75;;;;;;;20.11;45.88;100743.66;5009609;28;20054;-23
2021/09/03 06:34:28;;;;;;;8.73;4.10;;;;;;;20.04;46.10;100744.72;5009768;28;20037;-23
2021/09/03 06:36:53;;;;;;;6.55;3.50;;;;;;;20.26;46.27;100762.66;5009777;28;20026;-23
2021/09/03 06:39:19;;;;;;;8.93;3.75;;;;;;;20.61;45.25;100763.84;5009696;28;20038;-23
2021/09/03 06:41:44;;;;;;;8.35;4.10;;;;;;;20.56;45.03;100748.34;5009622;28;20034;-23
2021/09/03 06:44:10;;;;;;;6.35;3.55;;;;;;;20.70;45.25;100753.28;5009609;28;20041;-23
2021/09/03 06:46:35;;;;;;;7.78;3.70;;;;;;;20.55;44.42;100751.31;5009639;28;20037;-23
2021/09/03 06:49:00;;;;;;;8.68;3.00;;;;;;;20.85;45.09;100753.28;5009225;28;20465;-23
2021/09/03 06:51:26;;;;;;;8.25;3.38;;;;;;;20.91;43.56;100738.66;5009457;28;20034;-23
2021/09/03 06:53:51;;;;;;;7.90;3.05;;;;;;;20.99;44.15;100753.56;5009405;28;20543;-23
2021/09/03 06:56:17;;;;;;;6.80;3.25;;;;;;;21.03;44.75;100749.22;5009395;28;20033;-23
2021/09/03 06:58:42;;;;;;;7.72;3.08;;;;;;;21.43;43.28;100748.41;5009381;28;20033;-24
2021/09/03 07:01:08;;;;;;;7.38;3.45;;;;;;;21.46;42.36;100757.88;5009374;28;20422;-23
2021/09/03 07:03:33;;;;;;;8.52;3.13;;;;;;;21.24;42.80;100767.09;5009768;28;20041;-23
2021/09/03 07:05:59;;;;;;;7.18;3.60;;;;;;;21.37;42.34;100765.75;5009537;28;20029;-23
2021/09/03 07:08:24;;;;;;;8.88;3.17;;;;;;;21.20;41.81;100763.31;5009465;28;20406;-23
2021/09/03 07:10:49;;;;;;;7.85;3.25;;;;;;;21.25;42.31;100757.09;5008667;28;20034;-23
2021/09/03 07:13:16;;;;;;;10.57;3.17;;;;;;;21.34;41.23;100768.19;5009019;28;20037;-23
2021/09/03 07:15:42;;;;;;;9.20;3.55;;;;;;;21.21;41.43;100762.22;5009056;28;20061;-23
2021/09/03 07:18:07;;;;;;;7.13;3.20;;;;;;;21.48;42.41;100744.03;5009238;28;20045;-23
2021/09/03 07:20:33;;;;;;;9.13;3.10;;;;;;;21.63;41.90;100763.78;5009149;28;20029;-23
2021/09/03 07:23:01;;;;;;;5.38;2.85;;;;;;;21.13;41.02;100765.50;5008566;28;20038;-23
2021/09/03 07:25:27;;;;;;;8.55;3.92;;;;;;;21.49;40.74;100743.75;5008551;28;20037;-23
2021/09/03 07:27:52;;;;;;;7.22;3.30;;;;;;;21.72;40.14;100760.50;5008546;28;20054;-23
2021/09/03 07:30:18;;;;;;;8.80;3.25;;;;;;;21.61;41.03;100757.84;5008656;28;20041;-23
2021/09/03 07:32:44;;;;;;;5.07;2.67;;;;;;;21.72;40.24;100755.09;5008537;28;20113;-23
2021/09/03 07:35:11;;;;;;;6.95;3.17;;;;;;;21.78;40.25;100738.53;5008493;28;20033;-23
2021/09/03 07:37:38;;;;;;;11.25;4.18;;;;;;;21.84;40.71;100731.97;5008564;28;20052;-23
2021/09/03 07:40:05;;;;;;;8.23;3.20;;;;;;;21.78;39.76;100726.81;5007120;28;20030;-23
2021/09/03 07:42:30;;;;;;;6.22;3.08;;;;;;;22.10;39.37;100758.22;5008562;28;20264;-23
2021/09/03 07:44:56;;;;;;;6.68;2.92;;;;;;;22.10;39.87;100759.00;5008335;28;20406;-23
2021/09/03 07:47:21;;;;;;;5.63;2.95;;;;;;;21.82;40.92;100742.31;5008902;28;20509;-23
2021/09/03 07:49:47;;;;;;;8.20;3.95;;;;;;;22.26;40.66;100748.91;5008679;28;20037;-23
2021/09/03 07:52:12;;;;;;;5.75;2.90;;;;;;;22.23;39.09;100744.00;5008513;28;20092;-23
2021/09/03 07:54:37;;;;;;;6.07;2.63;;;;;;;22.59;38.81;100743.81;5008121;28;20030;-23
2021/09/03 07:57:03;;;;;;;9.85;2.80;;;;;;;22.65;38.59;100754.34;5008322;28;20037;-23
2021/09/03 07:59:28;;;;;;;7.18;2.78;;;;;;;22.72;37.39;100736.91;5008411;28;20050;-23
2021/09/03 08:01:54;;;;;;;6.80;3.08;;;;;;;23.00;38.15;100746.22;5008174;28;20025;-23
2021/09/03 08:04:19;;;;;;;5.28;2.80;;;;;;;22.97;36.93;100752.22;5008221;28;20030;-23
2021/09/03 08:06:45;;;;;;;7.78;2.90;;;;;;;23.02;37.26;100733.97;5007981;28;20030;-23
2021/09/03 08:09:10;;;;;;;9.88;2.90;;;;;;;23.08;36.74;100737.47;5007685;28;20037;-23
2021/09/03 08:11:36;;;;;;;10.52;3.03;;;;;;;23.18;36.54;100729.19;5008508;28;20037;-23
2021/09/03 08:14:01;;;;;;;6.20;2.72;;;;;;;23.46;37.15;100743.09;5008410;28;20034;-23
2021/09/03 08:16:27;;;;;;;39.95;16.63;;;;;;;23.05;37.56;100733.41;5007929;28;20069;-23
2021/09/03 08:18:52;;;;;;;45.90;25.35;;;;;;;22.83;37.35;100736.56;5007726;28;20033;-23
2021/09/03 08:21:18;;;;;;;9.00;5.07;;;;;;;23.11;36.51;100728.75;5007897;28;20892;-23
2021/09/03 08:23:44;;;;;;;6.22;2.88;;;;;;;23.45;37.43;100736.00;5007633;28;20159;-23
2021/09/03 08:26:09;;;;;;;4.43;2.75;;;;;;;23.33;35.32;100711.09;5008018;28;20038;-23
2021/09/03 08:28:35;;;;;;;5.43;2.53;;;;;;;23.66;36.20;100715.63;5006308;28;20128;-23
2021/09/03 08:31:00;;;;;;;7.55;2.97;;;;;;;23.84;35.31;100726.88;5007616;28;20026;-23
2021/09/03 08:33:26;;;;;;;6.57;3.30;;;;;;;23.73;35.68;100714.47;5007634;28;20037;-23
2021/09/03 08:35:51;;;;;;;5.78;2.50;;;;;;;23.70;35.30;100710.41;5007821;28;20036;-23
2021/09/03 08:38:17;;;;;;;5.03;2.75;;;;;;;23.63;35.23;100702.56;5006454;28;20065;-23
2021/09/03 08:40:42;;;;;;;5.03;2.92;;;;;;;23.81;36.88;100700.22;5007702;28;20087;-23
2021/09/03 08:43:08;;;;;;;5.78;2.70;;;;;;;23.88;34.53;100711.56;5006148;28;20417;-23
2021/09/03 08:45:33;;;;;;;5.70;2.63;;;;;;;24.12;34.52;100721.59;5006239;28;20040;-23
2021/09/03 08:47:58;;;;;;;4.32;2.50;;;;;;;24.00;33.67;100709.22;5007490;28;20038;-23
2021/09/03 08:50:24;;;;;;;4.75;2.58;;;;;;;24.20;34.71;100712.78;5006289;28;20030;-23
2021/09/03 08:52:50;;;;;;;5.90;2.65;;;;;;;23.83;34.34;100706.19;5007356;28;20474;-23
2021/09/03 08:55:16;;;;;;;14.23;6.40;;;;;;;24.17;34.48;100700.56;5007511;28;20160;-23
2021/09/03 08:57:42;;;;;;;15.85;7.90;;;;;;;24.49;33.40;100688.06;5007546;28;20033;-24
2021/09/03 09:00:16;;;;;;;24.30;12.93;;;;;;;24.82;34.69;100697.09;5007712;28;20140;-23
2021/09/03 09:02:59;;;;;;;6.93;2.78;;;;;;;24.31;34.50;100703.34;5006037;28;20092;-23
2021/09/03 09:05:43;;;;;;;10.13;3.10;;;;;;;23.99;35.58;100688.53;5007558;28;20490;-23
2021/09/03 09:08:09;;;;;;;6.57;2.65;;;;;;;24.36;33.41;100673.28;5007386;28;20040;-23
2021/09/03 09:10:34;;;;;;;6.57;2.70;;;;;;;25.06;32.75;100663.38;5007119;28;20026;-23
2021/09/03 09:12:59;;;;;;;7.72;3.45;;;;;;;24.74;33.38;100677.88;5007143;28;20041;-23
2021/09/03 09:15:25;;;;;;;8.65;4.32;;;;;;;24.75;33.44;100661.22;5007288;28;20621;-23
2021/09/03 09:17:51;;;;;;;9.52;3.38;;;;;;;24.93;33.20;100675.09;5007374;28;20112;-23
2021/09/03 09:20:17;;;;;;;6.68;3.03;;;;;;;24.91;33.68;100672.69;5007432;28;20030;-23
2021/09/03 09:22:51;;;;;;;5.28;3.10;;;;;;;24.93;32.77;100666.91;5007207;28;20026;-23
2021/09/03 09:25:21;;;;;;;7.22;3.25;;;;;;;25.54;32.18;100663.03;5006884;28;20113;-23
2021/09/03 09:27:47;;;;;;;5.28;3.00;;;;;;;25.24;32.79;100653.53;5007002;28;20050;-23
2021/09/03 09:30:26;;;;;;;6.00;2.90;;;;;;;24.82;32.67;100664.34;5006093;28;20036;-23
2021/09/03 09:33:17;;;;;;;5.43;2.78;;;;;;;25.47;31.71;100662.63;5007141;28;20548;-23
2021/09/03 09:35:47;;;;;;;5.88;2.90;;;;;;;26.00;30.68;100647.59;5010036;28;20034;-23
2021/09/03 09:38:15;;;;;;;6.40;3.00;;;;;;;26.22;31.31;100660.47;5011000;28;20084;-23
2021/09/03 09:40:49;;;;;;;33.97;18.17;;;;;;;26.25;30.58;100644.25;5010909;28;20044;-24
2021/09/03 09:43:34;;;;;;;10.55;4.80;;;;;;;25.83;30.56;100634.56;5010853;28;20041;-23
2021/09/03 09:46:17;;;;;;;8.30;5.10;;;;;;;24.93;32.05;100642.34;5010576;28;20026;-28
2021/09/03 09:48:49;;;;;;;9.88;5.25;;;;;;;25.65;31.15;100642.56;5010835;28;20177;-25
2021/09/03 09:51:33;;;;;;;5.07;2.80;;;;;;;26.16;31.46;100642.56;5010723;28;20040;-23
2021/09/03 09:54:11;;;;;;;5.35;2.80;;;;;;;25.95;31.18;100637.59;5010484;28;20088;-23
2021/09/03 09:56:49;;;;;;;5.72;2.95;;;;;;;25.35;32.54;100621.38;5010416;28;20034;-23
2021/09/03 09:59:14;;;;;;;6.25;2.67;;;;;;;25.51;32.52;100625.41;5010661;28;20037;-23
2021/09/03 10:01:41;;;;;;;11.07;5.25;;;;;;;25.73;30.37;100615.66;5010365;28;20080;-23
2021/09/03 10:04:11;;;;;;;10.13;5.28;;;;;;;25.98;31.35;100612.34;5010492;28;20046;-23
2021/09/03 10:06:38;;;;;;;7.22;3.22;;;;;;;25.96;30.82;100620.06;5010561;28;20834;-24
2021/09/03 10:09:08;;;;;;;4.65;2.85;;;;;;;26.00;30.44;100607.38;5010161;28;20092;-23
2021/09/03 10:11:35;;;;;;;5.53;2.88;;;;;;;26.05;30.28;100601.81;5010258;28;20038;-24
2021/09/03 10:14:00;;;;;;;10.73;5.40;;;;;;;25.76;31.06;100584.97;5010186;28;20080;-23
2021/09/03 10:16:26;;;;;;;8.07;4.07;;;;;;;25.28;31.35;100594.50;5010359;28;20045;-23
2021/09/03 10:18:54;;;;;;;7.78;3.97;;;;;;;25.74;32.46;100568.09;5010125;28;20045;-23
2021/09/03 10:21:22;;;;;;;6.07;3.20;;;;;;;26.04;30.88;100581.06;5008934;28;20091;-23
2021/09/03 10:24:01;;;;;;;5.72;3.08;;;;;;;26.10;30.36;100573.53;5008810;28;20042;-23
2021/09/03 10:26:34;;;;;;;11.05;3.10;;;;;;;26.28;31.30;100565.47;5009959;28;20041;-23
2021/09/03 10:29:13;;;;;;;11.80;5.55;;;;;;;26.13;30.85;100574.84;5008486;28;20133;-23
2021/09/03 10:32:03;;;;;;;8.20;5.05;;;;;;;26.88;30.10;100570.44;5009634;28;20096;-23
2021/09/03 10:34:40;;;;;;;6.15;3.78;;;;;;;27.02;29.06;100570.34;5009832;28;20034;-24
2021/09/03 10:37:12;;;;;;;;;;;;;;;27.60;28.50;100566.47;5008978;28;20060;-23
2021/09/03 10:39:43;;;;;;;5.22;2.45;;;;;;;26.95;28.86;100572.72;5009098;28;19913;-23
2021/09/03 10:42:08;;;;;;;8.13;2.88;;;;;;;27.47;29.06;100555.66;5009748;28;20120;-23
2021/09/03 10:45:09;;;;;;;5.32;2.65;;;;;;;27.52;28.67;100556.28;5009532;28;20101;-23
2021/09/03 10:47:47;;;;;;;5.72;2.78;;;;;;;27.97;28.33;100557.91;5009875;28;20034;-23
2021/09/03 10:50:31;;;;;;;6.15;3.00;;;;;;;27.55;29.24;100552.91;5009526;28;20566;-23
2021/09/03 10:53:06;;;;;;;4.40;2.30;;;;;;;27.18;29.36;100557.03;5009427;28;20030;-23
2021/09/03 10:56:06;;;;;;;5.72;2.75;;;;;;;27.13;28.25;100552.47;5009420;28;20116;-23
2021/09/03 10:58:32;;;;;;;5.18;2.63;;;;;;;27.32;28.88;100554.16;5009236;28;20033;-23
2021/09/03 11:01:09;;;;;;;3.55;2.28;;;;;;;26.97;29.62;100554.06;5009143;28;20034;-23
2021/09/03 11:03:35;;;;;;;;;;;;;;;27.38;29.49;100555.63;5009961;28;20092;-23
2021/09/03 11:06:01;;;;;;;6.13;2.58;;;;;;;26.84;29.44;100553.06;5009155;28;20421;-23
2021/09/03 11:08:45;;;;;;;4.82;2.47;;;;;;;26.70;28.85;100549.63;5009107;28;20030;-23
2021/09/03 11:11:36;;;;;;;7.22;2.63;;;;;;;27.59;29.48;100545.66;5008856;28;20173;-23
2021/09/03 11:14:06;;;;;;;10.77;3.70;;;;;;;28.08;26.90;100544.69;5009251;28;20033;-23
2021/09/03 11:16:54;;;;;;;4.97;2.80;;;;;;;28.23;26.86;100544.97;5009047;28;20026;-23
2021/09/03 11:19:25;;;;;;;8.15;3.00;;;;;;;28.27;26.83;100541.59;5009120;28;20085;-23
2021/09/03 11:21:51;;;;;;;4.07;2.50;;;;;;;28.63;26.00;100546.66;5009099;28;20072;-23
2021/09/03 11:24:18;;;;;;;5.10;2.58;;;;;;;28.43;26.29;100537.97;5009044;28;20494;-23